Arapoema, Brazil
Current Conditions -  °F | °C
As of 7:15 AM on Thursday 27 Nov 2014 (Local Time) from SBCJ Reporting Station
Thunderstorm Thunderstorm  
Wind Chill: 70°   Ceiling: 8000
Heat Index: 70°   Visibility: 5mi
Dew Point: 66°   Wind: 6mph
Humidity: 88%   Direction: 130°SE
Pressure: NA   Gusts: NA
Location:  7.66°S, 49.06°W
Report Text: SBCJ 271015Z 13005KT 8000 -TSRA FEW023 FEW025CB OVC080 21/19 Q1014
Loading
Personal Weather Stations






























Interactive Weather Map New forecast layout! Learn more

10-Day Weather Forecast

Advertisements
Track Severe Weather on mobile